This is the latest recevied weather packets stored in our database for station/object KA3ZXO. If no packets are shown the sender has not sent any weather packets the latest 10 day(s).
| Time | Temp. | Humidity | Pressure | Rain* | Wind** | Luminosity | Snow |
|---|---|---|---|---|---|---|---|
| 1777871061 | 10.56° C | 68% | 1016.1 hPa | 0 mm | - | 0 W/m² | - |
| 1777870459 | 10.56° C | 67% | 1016 hPa | 0 mm | - | 0 W/m² | - |
| 1777869859 | 10° C | 68% | 1016.3 hPa | 0 mm | - | 0 W/m² | - |
| 1777869259 | 9.44° C | 70% | 1016.3 hPa | 0 mm | - | 0 W/m² | - |
| 1777868659 | 8.89° C | 74% | 1016.3 hPa | 0 mm | - | 0 W/m² | - |
| 1777868058 | 8.33° C | 76% | 1016.2 hPa | 0 mm | - | 0 W/m² | - |
| 1777867452 | 7.78° C | 77% | 1016.2 hPa | 0 mm | - | 0 W/m² | - |
| 1777866851 | 7.78° C | 78% | 1015.9 hPa | 0 mm | - | 0 W/m² | - |
| 1777866251 | 7.78° C | 78% | 1016.1 hPa | 0 mm | - | 0 W/m² | - |
| 1777865646 | 7.78° C | 78% | 1015.9 hPa | 0 mm | - | 0 W/m² | - |
| 1777865045 | 7.78° C | 77% | 1015.9 hPa | 0 mm | - | 0 W/m² | - |
| 1777864445 | 7.78° C | 77% | 1015.7 hPa | 0 mm | - | 0 W/m² | - |
| 1777863844 | 7.78° C | 77% | 1015.8 hPa | 0 mm | - | 0 W/m² | - |
| 1777863243 | 7.22° C | 77% | 1015.9 hPa | 0 mm | - | 0 W/m² | - |
| 1777862642 | 7.22° C | 77% | 1015.6 hPa | 0 mm | - | 0 W/m² | - |
| 1777862042 | 7.22° C | 76% | 1015.8 hPa | 0 mm | - | 0 W/m² | - |
| 1777861440 | 7.78° C | 74% | 1015.7 hPa | 0 mm | - | 0 W/m² | - |
| 1777860839 | 7.78° C | 74% | 1015.7 hPa | 0 mm | - | 0 W/m² | - |
| 1777860239 | 7.78° C | 74% | 1015.8 hPa | 0 mm | - | 0 W/m² | - |
| 1777859637 | 7.78° C | 73% | 1015.7 hPa | 0 mm | - | 0 W/m² | - |
| 1777859035 | 8.33° C | 72% | 1015.6 hPa | 0 mm | - | 0 W/m² | - |
| 1777858431 | 8.33° C | 71% | 1015.6 hPa | 0 mm | - | 0 W/m² | - |
| 1777857831 | 8.33° C | 70% | 1015.5 hPa | 0 mm | - | 0 W/m² | - |
| 1777857230 | 8.89° C | 68% | 1015.1 hPa | 0 mm | - | 0 W/m² | - |
| 1777856628 | 9.44° C | 66% | 1015.5 hPa | 0 mm | - | 0 W/m² | - |
* Rain latest hour (hover to see other rain measurements)
** Current wind speed in m/s (hover to see current wind gust speed)